Time;durP1;ratioP1;P1;durP2;ratioP2;P2;SDS_P1;SDS_P2;PMS_P1;PMS_P2;Temp;Humidity;BMP_temperature;BMP_pressure;BME280_temperature;BME280_humidity;BME280_pressure;Samples;Min_cycle;Max_cycle;Signal;HPM_P1;HPM_P2
2021/11/08 00:01:58;;;;;;;30.08;5.10;;;;;;;5.33;94.09;99755.56;5041956;28;20068;-61
2021/11/08 00:04:24;;;;;;;17.17;4.05;;;;;;;5.34;93.86;99758.03;5042208;28;20037;-61
2021/11/08 00:06:52;;;;;;;20.63;5.03;;;;;;;5.33;94.25;99759.03;5041438;28;20040;-61
2021/11/08 00:09:18;;;;;;;17.25;4.60;;;;;;;5.32;93.89;99760.06;5041838;28;20470;-61
2021/11/08 00:11:45;;;;;;;15.80;4.10;;;;;;;5.34;94.09;99755.38;5041871;28;20124;-61
2021/11/08 00:14:13;;;;;;;21.65;4.70;;;;;;;5.33;94.24;99751.06;5042471;28;20414;-61
2021/11/08 00:16:54;;;;;;;13.07;3.65;;;;;;;5.36;93.67;99748.00;5041187;28;20037;-61
2021/11/08 00:21:48;;;;;;;16.17;4.72;;;;;;;5.45;92.75;99742.56;5038368;28;20033;-61
2021/11/08 00:24:16;;;;;;;16.58;3.75;;;;;;;5.38;93.13;99743.31;5034205;28;20044;-61
2021/11/08 00:26:42;;;;;;;11.40;3.60;;;;;;;5.40;93.05;99743.97;5036418;28;20471;-61
2021/11/08 00:29:08;;;;;;;14.55;4.15;;;;;;;5.48;92.72;99747.47;5041496;28;20386;-61
2021/11/08 00:31:33;;;;;;;24.77;4.43;;;;;;;5.45;92.85;99754.00;5041904;28;20045;-61
2021/11/08 00:33:58;;;;;;;13.68;4.03;;;;;;;5.51;92.62;99749.75;5034169;28;20036;-61
2021/11/08 00:36:25;;;;;;;18.80;4.32;;;;;;;5.54;92.38;99747.53;5039352;28;20052;-61
2021/11/08 00:38:50;;;;;;;18.65;4.35;;;;;;;5.55;91.91;99749.16;5034013;28;20160;-60
2021/11/08 00:41:16;;;;;;;18.85;4.30;;;;;;;5.56;92.04;99757.94;5041362;28;20037;-61
2021/11/08 00:43:41;;;;;;;23.08;4.80;;;;;;;5.54;92.50;99755.50;5042595;28;20599;-61
2021/11/08 00:46:08;;;;;;;23.65;4.50;;;;;;;5.59;92.32;99752.22;5042344;28;20472;-61
2021/11/08 00:48:35;;;;;;;18.65;4.60;;;;;;;5.62;92.02;99752.66;5041074;28;20085;-61
2021/11/08 00:51:01;;;;;;;18.15;4.32;;;;;;;5.63;91.94;99748.97;5041149;28;20098;-61
2021/11/08 00:53:27;;;;;;;22.98;4.00;;;;;;;5.70;91.49;99757.00;5030645;28;20116;-61
2021/11/08 00:55:54;;;;;;;18.50;4.30;;;;;;;5.60;92.04;99757.34;5040889;28;20045;-61
2021/11/08 00:58:31;;;;;;;23.95;5.03;;;;;;;5.60;92.33;99745.91;5042258;28;20029;-61
2021/11/08 01:01:02;;;;;;;25.40;5.20;;;;;;;5.56;92.72;99760.59;5040973;28;20345;-61
2021/11/08 01:03:27;;;;;;;22.50;5.10;;;;;;;5.56;92.90;99749.97;5042226;28;20055;-62
2021/11/08 01:05:52;;;;;;;25.70;5.35;;;;;;;5.62;92.63;99759.84;5040170;28;20041;-62
2021/11/08 01:08:18;;;;;;;18.98;4.68;;;;;;;5.72;92.02;99754.16;5042329;28;20059;-62
2021/11/08 01:10:43;;;;;;;21.52;4.75;;;;;;;5.63;92.30;99750.81;5042162;28;20749;-62
2021/11/08 01:13:09;;;;;;;20.60;4.78;;;;;;;5.68;91.95;99755.56;5042120;28;20095;-62
2021/11/08 01:15:34;;;;;;;20.60;4.85;;;;;;;5.69;92.50;99760.69;5042040;28;20044;-61
2021/11/08 01:18:00;;;;;;;26.08;4.75;;;;;;;5.66;92.02;99766.38;5045275;28;20115;-62
2021/11/08 01:20:32;;;;;;;17.55;4.82;;;;;;;5.62;92.20;99773.13;5041730;28;20057;-61
2021/11/08 01:22:59;;;;;;;20.73;4.75;;;;;;;5.49;92.32;99781.00;5014012;28;20038;-62
2021/11/08 01:25:24;;;;;;;21.63;4.28;;;;;;;5.40;93.08;99781.19;5040575;28;20049;-62
2021/11/08 01:27:51;;;;;;;19.85;4.70;;;;;;;5.29;93.70;99773.75;5045149;28;20025;-61
2021/11/08 01:30:23;;;;;;;19.95;4.70;;;;;;;5.28;93.47;99779.25;5044653;28;20171;-61
2021/11/08 01:33:10;;;;;;;18.38;4.80;;;;;;;5.26;93.45;99779.44;5045219;28;20040;-61
2021/11/08 01:38:11;;;;;;;26.58;5.40;;;;;;;5.32;93.66;99776.03;5045539;28;20032;-61
2021/11/08 01:40:37;;;;;;;26.75;5.05;;;;;;;5.25;93.77;99775.16;5043328;28;20063;-62
2021/11/08 01:43:04;;;;;;;21.92;5.85;;;;;;;5.22;94.01;99788.00;5043843;28;20120;-62
2021/11/08 01:45:29;;;;;;;19.98;4.72;;;;;;;5.17;94.37;99785.94;5044378;28;20483;-61
2021/11/08 01:47:55;;;;;;;21.55;5.13;;;;;;;5.14;94.54;99788.97;5044763;28;20031;-61
2021/11/08 01:50:20;;;;;;;17.45;3.70;;;;;;;5.17;94.78;99796.56;5041853;28;20509;-62
2021/11/08 01:52:46;;;;;;;23.30;4.55;;;;;;;5.10;94.90;99787.72;5043107;28;20479;-62
2021/11/08 01:55:11;;;;;;;19.45;4.82;;;;;;;5.10;94.93;99788.53;5036987;28;20033;-62
2021/11/08 01:57:37;;;;;;;22.17;5.40;;;;;;;5.06;95.40;99783.78;5042516;28;20033;-62
2021/11/08 02:00:04;;;;;;;19.00;4.85;;;;;;;5.06;95.33;99789.09;5040823;28;20021;-60
2021/11/08 02:02:30;;;;;;;19.70;5.60;;;;;;;5.05;95.11;99790.13;5041617;28;20078;-62
2021/11/08 02:04:55;;;;;;;30.30;5.25;;;;;;;4.97;95.66;99793.75;5037483;28;20032;-62
2021/11/08 02:07:21;;;;;;;25.17;5.07;;;;;;;4.92;96.00;99794.31;5043335;28;20064;-62
2021/11/08 02:09:46;;;;;;;27.30;5.95;;;;;;;4.78;96.40;99792.56;5041123;28;20708;-60
2021/11/08 02:12:11;;;;;;;18.50;4.53;;;;;;;4.78;96.59;99789.91;5040680;28;20040;-60
2021/11/08 02:14:40;;;;;;;25.33;5.45;;;;;;;4.76;96.70;99790.09;5039097;28;20024;-60
2021/11/08 02:17:06;;;;;;;25.38;4.97;;;;;;;4.80;96.66;99787.88;5043433;28;20037;-60
2021/11/08 02:19:31;;;;;;;21.70;5.35;;;;;;;4.83;96.07;99798.13;5043871;28;20538;-60
2021/11/08 02:21:59;;;;;;;19.70;4.82;;;;;;;4.83;96.63;99798.13;5037984;28;20103;-60
2021/11/08 02:24:26;;;;;;;19.27;5.28;;;;;;;4.95;95.93;99793.94;5043830;28;20090;-60
2021/11/08 02:26:51;;;;;;;18.90;4.65;;;;;;;5.03;95.49;99798.28;5039578;28;20147;-60
2021/11/08 02:29:17;;;;;;;26.52;6.22;;;;;;;5.10;94.93;99798.34;5042089;28;20025;-60
2021/11/08 02:31:42;;;;;;;17.85;5.00;;;;;;;4.99;95.23;99797.03;5038114;28;20045;-60
2021/11/08 02:34:08;;;;;;;25.13;5.88;;;;;;;5.07;95.00;99793.44;5041535;28;20025;-61
2021/11/08 02:36:34;;;;;;;22.15;4.90;;;;;;;5.07;94.74;99793.44;5038804;28;20095;-60
2021/11/08 02:39:01;;;;;;;18.08;5.05;;;;;;;5.16;93.79;99797.56;5043009;28;20391;-63
2021/11/08 02:41:27;;;;;;;16.00;4.75;;;;;;;5.24;93.41;99794.78;5041547;28;20094;-60
2021/11/08 02:43:53;;;;;;;19.48;5.47;;;;;;;5.24;93.07;99794.78;5043727;28;20033;-60
2021/11/08 02:46:24;;;;;;;18.13;4.72;;;;;;;5.18;93.29;99795.53;5042936;28;20061;-60
2021/11/08 02:48:51;;;;;;;31.50;5.72;;;;;;;5.14;93.72;99794.28;5044122;28;20028;-61
2021/11/08 02:51:20;;;;;;;20.13;5.75;;;;;;;5.22;93.49;99795.97;5042137;28;20040;-61
2021/11/08 02:53:47;;;;;;;25.90;5.55;;;;;;;5.28;92.91;99793.38;5035607;28;20150;-61
2021/11/08 02:56:13;;;;;;;21.75;5.32;;;;;;;5.30;92.79;99793.19;5038636;28;20064;-61
2021/11/08 02:58:42;;;;;;;18.45;5.90;;;;;;;5.37;92.34;99797.53;5043526;28;20307;-61
2021/11/08 03:01:07;;;;;;;26.98;5.80;;;;;;;5.36;92.72;99795.88;5039301;28;20038;-61
2021/11/08 03:03:38;;;;;;;23.98;6.10;;;;;;;5.41;92.54;99800.59;5051916;28;20056;-60
2021/11/08 03:06:11;;;;;;;26.65;5.75;;;;;;;5.32;92.62;99797.28;5042455;28;20361;-61
2021/11/08 03:08:37;;;;;;;25.70;6.40;;;;;;;5.30;93.07;99806.47;5039629;28;20037;-60
2021/11/08 03:11:03;;;;;;;24.52;5.30;;;;;;;5.31;92.41;99806.25;5042159;28;20048;-61
2021/11/08 03:13:33;;;;;;;23.33;5.47;;;;;;;5.27;92.46;99802.38;5038450;28;20466;-60
2021/11/08 03:16:25;;;;;;;25.60;6.20;;;;;;;5.17;92.72;99796.56;5038439;28;20041;-61
2021/11/08 03:18:45;;;;;;;19.63;5.32;;;;;;;5.09;92.79;99794.88;5039187;28;20077;-61
2021/11/08 03:21:19;;;;;;;22.20;6.03;;;;;;;5.05;92.96;99790.94;5036445;28;20049;-61
2021/11/08 03:23:47;;;;;;;18.13;5.20;;;;;;;5.00;92.88;99800.53;5036947;28;20522;-60
2021/11/08 03:26:27;;;;;;;21.33;5.95;;;;;;;4.90;93.08;99798.19;5041694;28;20103;-61
2021/11/08 03:28:53;;;;;;;16.67;5.70;;;;;;;4.96;92.96;99803.53;5041671;28;20334;-60
2021/11/08 03:31:19;;;;;;;20.45;5.45;;;;;;;4.82;93.63;99807.13;5040144;28;20068;-60
2021/11/08 03:33:45;;;;;;;21.90;6.28;;;;;;;4.73;93.59;99810.91;5038920;28;20055;-60
2021/11/08 03:36:12;;;;;;;24.17;6.40;;;;;;;4.65;94.05;99808.38;5036044;28;20502;-61
2021/11/08 03:38:39;;;;;;;20.85;5.72;;;;;;;4.65;94.12;99811.84;5039895;28;20143;-61
2021/11/08 03:41:04;;;;;;;25.08;6.40;;;;;;;4.63;94.64;99813.88;5042136;28;20083;-61
2021/11/08 03:43:30;;;;;;;29.33;6.90;;;;;;;4.54;94.50;99820.31;5038803;28;20029;-61
2021/11/08 03:45:56;;;;;;;27.08;6.20;;;;;;;4.52;95.26;99827.66;5038602;28;20044;-61
2021/11/08 03:48:21;;;;;;;21.15;6.00;;;;;;;4.54;95.35;99823.81;5041513;28;20562;-61
2021/11/08 03:50:48;;;;;;;23.05;6.10;;;;;;;4.63;94.87;99827.16;5040913;28;20431;-61
2021/11/08 03:53:13;;;;;;;21.67;5.82;;;;;;;4.52;95.05;99833.78;5037494;28;20033;-61
2021/11/08 03:55:39;;;;;;;17.77;5.28;;;;;;;4.56;95.02;99833.41;5037755;28;20049;-60
2021/11/08 03:58:04;;;;;;;28.92;6.72;;;;;;;4.54;95.82;99828.28;5037360;28;20511;-61
2021/11/08 04:00:30;;;;;;;25.65;6.57;;;;;;;4.60;96.03;99834.69;5042315;28;20034;-61
2021/11/08 04:02:57;;;;;;;24.48;6.43;;;;;;;4.56;96.06;99838.72;5037267;28;20438;-61
2021/11/08 04:05:23;;;;;;;17.60;6.28;;;;;;;4.57;96.17;99843.00;5040686;28;20087;-61
2021/11/08 04:07:49;;;;;;;23.48;6.65;;;;;;;4.62;96.30;99822.84;5042369;28;20053;-61
2021/11/08 04:10:15;;;;;;;20.65;6.72;;;;;;;4.73;95.80;99832.16;5031200;28;20068;-60
2021/11/08 04:12:42;;;;;;;26.48;7.10;;;;;;;4.74;95.66;99828.47;5042984;28;20107;-60
2021/11/08 04:15:11;;;;;;;22.77;6.57;;;;;;;4.75;95.32;99830.13;5042465;28;20036;-60
2021/11/08 04:17:42;;;;;;;25.98;6.72;;;;;;;4.82;94.89;99840.78;5042564;28;20602;-61
2021/11/08 04:20:08;;;;;;;20.23;5.85;;;;;;;4.90;94.39;99846.00;5041115;28;20089;-60
2021/11/08 04:22:34;;;;;;;21.10;6.13;;;;;;;4.84;94.35;99847.59;5042302;28;20432;-61
2021/11/08 04:25:00;;;;;;;22.88;6.60;;;;;;;4.89;94.63;99853.16;5042356;28;20036;-60
2021/11/08 04:27:26;;;;;;;21.77;6.88;;;;;;;4.92;94.29;99850.13;5041772;28;20745;-61
2021/11/08 04:29:52;;;;;;;20.20;6.53;;;;;;;4.94;94.36;99858.72;5040123;28;20036;-61
2021/11/08 04:32:18;;;;;;;26.60;7.47;;;;;;;4.87;94.55;99855.19;5041994;28;20126;-61
2021/11/08 04:34:52;;;;;;;28.95;6.75;;;;;;;4.89;94.48;99853.16;5041952;28;20043;-61
2021/11/08 04:40:19;;;;;;;19.73;6.20;;;;;;;4.97;93.87;99860.16;5041644;28;20106;-61
2021/11/08 04:48:13;;;;;;;15.63;6.07;;;;;;;4.92;93.79;99859.91;5042223;28;21326;-61
2021/11/08 04:50:54;;;;;;;25.25;6.65;;;;;;;5.00;93.72;99854.47;5041714;28;20053;-62
2021/11/08 05:30:36;;;;;;;27.40;6.82;;;;;;;4.60;95.03;99855.91;5045135;28;20402;-61
2021/11/08 05:33:02;;;;;;;22.08;6.03;;;;;;;4.65;95.28;99858.84;5044820;28;20079;-61
2021/11/08 05:35:28;;;;;;;24.95;6.50;;;;;;;4.59;95.81;99859.56;5044488;28;20060;-61
2021/11/08 05:37:53;;;;;;;22.08;6.40;;;;;;;4.51;96.12;99858.66;5044393;28;20589;-61
2021/11/08 05:40:32;;;;;;;26.55;7.88;;;;;;;4.50;96.58;99870.31;5042920;28;20058;-61
2021/11/08 05:42:57;;;;;;;22.33;6.72;;;;;;;4.51;96.69;99869.28;5037715;28;20110;-61
2021/11/08 05:45:23;;;;;;;18.45;6.07;;;;;;;4.58;96.27;99873.88;5036540;28;20494;-61
2021/11/08 05:47:49;;;;;;;25.67;7.65;;;;;;;4.53;96.19;99877.06;5044604;28;20029;-61
2021/11/08 05:50:17;;;;;;;24.73;7.22;;;;;;;4.50;96.20;99874.81;5043731;28;20041;-61
2021/11/08 05:52:43;;;;;;;36.08;8.70;;;;;;;4.29;96.92;99878.22;5035836;28;20041;-61
2021/11/08 05:55:11;;;;;;;22.42;6.72;;;;;;;4.27;97.63;99873.13;5042834;28;20037;-60
2021/11/08 05:57:43;;;;;;;28.38;7.78;;;;;;;4.36;97.12;99871.16;5044554;28;20043;-61
2021/11/08 06:49:37;;;;;;;22.63;7.18;;;;;;;4.14;97.77;99941.09;5039065;28;20379;-60
2021/11/08 06:52:04;;;;;;;31.70;7.55;;;;;;;4.21;97.67;99944.66;5019757;28;20375;-60
2021/11/08 06:54:30;;;;;;;24.80;7.35;;;;;;;4.21;97.47;99942.00;5044412;28;20072;-62
2021/11/08 06:56:59;;;;;;;20.45;6.55;;;;;;;4.28;97.02;99942.94;5042997;28;20066;-62
2021/11/08 06:59:26;;;;;;;20.92;5.68;;;;;;;4.18;97.38;99947.69;5040095;28;20029;-62
2021/11/08 07:01:53;;;;;;;23.08;5.97;;;;;;;4.19;97.35;99954.63;5035678;28;20037;-62
2021/11/08 07:04:18;;;;;;;18.40;6.32;;;;;;;4.26;97.35;99956.38;5037479;28;20674;-62
2021/11/08 07:06:44;;;;;;;22.60;7.88;;;;;;;4.20;97.21;99946.50;5034464;28;20043;-62
2021/11/08 07:09:10;;;;;;;24.05;7.13;;;;;;;4.25;97.26;99959.22;5041362;28;20029;-60
2021/11/08 07:11:36;;;;;;;30.20;7.72;;;;;;;4.20;97.54;99961.59;5042433;28;20033;-62
2021/11/08 07:14:01;;;;;;;26.75;8.60;;;;;;;4.17;98.07;99972.56;5040960;28;20055;-60
2021/11/08 07:16:26;;;;;;;12.60;4.43;;;;;;;4.18;97.60;99974.22;5041454;28;20041;-60
2021/11/08 07:18:52;;;;;;;32.03;8.30;;;;;;;4.19;97.85;99978.50;5042475;28;20024;-60
2021/11/08 07:21:17;;;;;;;17.08;4.45;;;;;;;4.19;97.66;99975.84;5036448;28;20403;-62
2021/11/08 07:23:43;;;;;;;32.17;9.13;;;;;;;4.22;97.48;99978.13;5033607;28;20542;-60
2021/11/08 07:26:11;;;;;;;28.75;8.27;;;;;;;4.24;97.63;99974.31;5040269;28;20040;-60
2021/11/08 07:28:37;;;;;;;26.83;7.30;;;;;;;4.30;97.54;99972.75;5032339;28;20025;-61
2021/11/08 07:31:03;;;;;;;12.98;5.85;;;;;;;4.37;96.94;99978.13;5038540;28;20063;-61
2021/11/08 07:33:31;;;;;;;27.02;9.02;;;;;;;4.35;97.39;99981.00;5041053;28;20032;-61
2021/11/08 07:35:58;;;;;;;27.65;6.38;;;;;;;4.41;97.14;99990.88;5037871;28;20068;-61
2021/11/08 07:38:23;;;;;;;37.63;9.05;;;;;;;4.53;96.64;99984.09;5036494;28;20029;-61
2021/11/08 07:40:49;;;;;;;29.60;8.10;;;;;;;4.57;96.22;99978.41;5040151;28;20056;-60
2021/11/08 07:43:14;;;;;;;22.55;7.53;;;;;;;4.69;96.05;99979.56;5037575;28;20360;-60
2021/11/08 07:45:40;;;;;;;27.08;8.13;;;;;;;4.79;95.72;99985.41;5040272;28;20149;-60
2021/11/08 07:48:07;;;;;;;22.10;7.03;;;;;;;4.82;95.55;99984.22;5040111;28;20402;-61
2021/11/08 07:50:32;;;;;;;23.45;7.63;;;;;;;5.06;94.85;99983.06;5038471;28;20095;-61
2021/11/08 07:52:58;;;;;;;22.50;7.38;;;;;;;5.16;94.61;99988.91;5033405;28;20438;-61
2021/11/08 07:55:23;;;;;;;16.73;5.07;;;;;;;5.29;93.76;99994.38;5040655;28;20153;-62
2021/11/08 07:57:49;;;;;;;16.08;6.47;;;;;;;5.70;91.23;100001.69;5036041;28;20025;-63
2021/11/08 08:00:14;;;;;;;26.15;7.47;;;;;;;6.03;91.63;99995.84;5026549;28;20025;-60
2021/11/08 08:02:41;;;;;;;23.10;8.05;;;;;;;5.67;92.50;99996.75;5040954;28;20076;-61
2021/11/08 08:05:07;;;;;;;19.38;6.40;;;;;;;5.41;93.40;99998.16;5039270;28;20037;-61
2021/11/08 08:07:32;;;;;;;27.75;7.88;;;;;;;5.43;93.95;100000.63;5031999;28;20383;-61
2021/11/08 08:09:58;;;;;;;21.52;7.35;;;;;;;5.31;94.02;99987.00;5030165;28;20064;-61
2021/11/08 08:12:23;;;;;;;25.92;8.05;;;;;;;5.31;94.59;99994.97;5041815;28;20044;-62
2021/11/08 08:14:49;;;;;;;34.63;8.60;;;;;;;5.44;94.18;99990.81;5040859;28;20246;-61
2021/11/08 08:17:14;;;;;;;24.52;7.20;;;;;;;5.22;94.88;99985.50;5039778;28;20044;-61
2021/11/08 08:19:40;;;;;;;18.40;6.65;;;;;;;5.30;93.82;99988.03;5037605;28;20650;-61
2021/11/08 08:22:08;;;;;;;23.75;7.45;;;;;;;5.33;93.78;99998.28;5034045;28;20069;-60
2021/11/08 08:24:33;;;;;;;24.52;6.63;;;;;;;5.69;92.50;100000.06;5033406;28;20029;-61
2021/11/08 08:27:03;;;;;;;25.17;7.88;;;;;;;6.12;89.68;100000.00;5045314;28;20052;-61
2021/11/08 08:29:29;;;;;;;28.30;7.28;;;;;;;6.60;86.98;99994.75;5045517;28;20360;-61
2021/11/08 08:31:54;;;;;;;27.85;8.05;;;;;;;6.47;88.15;100002.69;5044159;28;20128;-60
2021/11/08 08:34:20;;;;;;;20.52;6.63;;;;;;;6.65;86.47;100002.97;5046017;28;20136;-61
2021/11/08 08:36:45;;;;;;;18.10;5.50;;;;;;;6.66;85.72;99999.28;5045402;28;20041;-62
2021/11/08 08:39:11;;;;;;;22.13;7.07;;;;;;;7.29;85.13;99995.59;5043027;28;20025;-61
2021/11/08 08:41:36;;;;;;;24.35;6.80;;;;;;;6.54;86.45;99995.53;5045522;28;20040;-61
2021/11/08 08:44:02;;;;;;;26.63;7.35;;;;;;;6.79;86.58;100001.19;5045550;28;20051;-61
2021/11/08 08:46:28;;;;;;;22.77;6.55;;;;;;;7.01;86.11;100004.53;5035390;28;20252;-61
2021/11/08 08:48:54;;;;;;;19.85;6.43;;;;;;;6.92;84.19;100005.75;5037140;28;20048;-61
2021/11/08 08:51:20;;;;;;;23.45;7.20;;;;;;;6.21;88.22;100008.66;5041341;28;20060;-60
2021/11/08 08:53:45;;;;;;;21.90;6.95;;;;;;;6.43;88.33;100012.06;5038883;28;20555;-60
2021/11/08 08:56:11;;;;;;;17.02;6.25;;;;;;;6.43;88.50;100014.72;5036225;28;20701;-62
2021/11/08 08:58:38;;;;;;;14.55;5.30;;;;;;;6.42;87.14;100011.25;5041814;28;20087;-61
2021/11/08 09:01:04;;;;;;;23.13;6.93;;;;;;;6.66;86.09;100012.63;5042457;28;20628;-61
2021/11/08 09:03:29;;;;;;;23.80;6.63;;;;;;;7.22;83.85;100011.59;5037833;28;20033;-61
2021/11/08 09:05:54;;;;;;;21.95;7.57;;;;;;;7.59;82.79;100014.72;5043202;28;20036;-62
2021/11/08 09:08:20;;;;;;;18.73;7.03;;;;;;;7.32;82.25;100027.19;5044981;28;20028;-62
2021/11/08 09:10:46;;;;;;;23.45;6.38;;;;;;;7.86;81.09;100018.25;5043304;28;20049;-62
2021/11/08 09:13:12;;;;;;;15.75;6.00;;;;;;;8.34;80.16;100023.31;5039787;28;20029;-62
2021/11/08 09:15:38;;;;;;;24.20;6.95;;;;;;;8.74;77.53;100030.47;5039888;28;20037;-62
2021/11/08 09:18:04;;;;;;;23.58;6.95;;;;;;;8.91;76.28;100030.78;5043573;28;20048;-62
2021/11/08 09:20:30;;;;;;;21.17;6.28;;;;;;;8.11;80.70;100038.94;5044029;28;20503;-61
2021/11/08 09:22:55;;;;;;;24.35;7.00;;;;;;;7.44;83.69;100044.25;5043405;28;20051;-62
2021/11/08 09:25:22;;;;;;;20.15;6.28;;;;;;;7.10;85.97;100040.66;5044493;28;20376;-62
2021/11/08 09:27:49;;;;;;;19.58;6.30;;;;;;;6.76;86.62;100043.38;5044392;28;20513;-62
2021/11/08 09:30:15;;;;;;;20.35;6.95;;;;;;;6.70;87.78;100045.81;5042293;28;20033;-62
2021/11/08 09:32:42;;;;;;;24.13;7.20;;;;;;;6.98;87.55;100052.91;5033081;28;20024;-62
2021/11/08 09:35:08;;;;;;;19.75;7.07;;;;;;;7.04;87.26;100046.81;5054945;28;20696;-61
2021/11/08 09:37:37;;;;;;;23.27;7.32;;;;;;;6.92;86.54;100043.06;5041391;28;20175;-61
2021/11/08 09:40:03;;;;;;;20.52;7.13;;;;;;;7.01;86.45;100041.84;5044154;28;20021;-61
2021/11/08 09:42:28;;;;;;;20.25;7.72;;;;;;;7.20;86.65;100052.78;5040212;28;20025;-62
2021/11/08 09:44:54;;;;;;;24.65;7.70;;;;;;;7.32;87.07;100045.88;5042614;28;20387;-62
2021/11/08 09:47:20;;;;;;;26.05;8.07;;;;;;;7.52;85.79;100046.72;5040528;28;20106;-62
2021/11/08 09:49:51;;;;;;;27.55;8.77;;;;;;;7.61;84.78;100049.19;5042638;28;20068;-62
2021/11/08 09:52:17;;;;;;;22.60;7.22;;;;;;;8.17;82.33;100059.50;5042254;28;20037;-62
2021/11/08 09:54:43;;;;;;;20.88;6.47;;;;;;;8.18;80.83;100059.28;5040706;28;20024;-62
2021/11/08 09:57:09;;;;;;;24.80;6.70;;;;;;;8.29;81.90;100057.84;5040345;28;20483;-62
2021/11/08 09:59:35;;;;;;;29.33;7.68;;;;;;;8.59;81.48;100058.25;5042625;28;20025;-62
2021/11/08 10:02:00;;;;;;;25.13;6.95;;;;;;;9.40;78.29;100066.78;5038076;28;20396;-62
2021/11/08 10:04:26;;;;;;;23.73;7.00;;;;;;;9.05;78.85;100062.59;5041904;28;20065;-62
2021/11/08 10:06:51;;;;;;;24.73;7.15;;;;;;;8.76;79.68;100061.28;5041981;28;21476;-62
2021/11/08 10:09:20;;;;;;;24.25;6.93;;;;;;;9.15;78.34;100048.78;5043864;28;20028;-62
2021/11/08 10:11:47;;;;;;;23.15;6.28;;;;;;;9.00;77.29;100045.56;5039393;28;20045;-62
2021/11/08 10:14:14;;;;;;;23.38;6.47;;;;;;;10.08;74.86;100053.56;5043890;28;20534;-61
2021/11/08 10:16:41;;;;;;;25.75;7.18;;;;;;;10.84;72.49;100056.16;5042439;28;20075;-63
2021/11/08 10:19:09;;;;;;;37.03;13.10;;;;;;;10.51;73.98;100066.16;5037169;28;20745;-61
2021/11/08 10:21:45;;;;;;;22.30;6.30;;;;;;;10.65;75.00;100060.66;5042872;28;20462;-63
2021/11/08 10:24:13;;;;;;;22.85;6.68;;;;;;;9.97;74.75;100061.47;5043754;28;20029;-63
2021/11/08 10:26:39;;;;;;;18.02;6.03;;;;;;;9.93;75.76;100063.75;5052740;28;20191;-62
2021/11/08 10:29:10;;;;;;;23.90;7.38;;;;;;;8.93;79.09;100061.63;5042493;28;20025;-62
2021/11/08 10:31:41;;;;;;;18.50;6.65;;;;;;;8.68;80.58;100056.16;5042611;28;20568;-62
2021/11/08 10:34:08;;;;;;;24.25;6.57;;;;;;;8.63;80.88;100051.44;5043055;28;20301;-61
2021/11/08 10:36:34;;;;;;;22.77;6.50;;;;;;;8.46;82.21;100047.56;5043075;28;20190;-63
2021/11/08 10:39:01;;;;;;;20.33;5.90;;;;;;;8.34;81.60;100039.34;5027311;28;20491;-60
2021/11/08 10:41:30;;;;;;;24.20;6.90;;;;;;;8.53;81.94;100042.22;5039596;28;20033;-62
2021/11/08 10:44:06;;;;;;;23.17;6.67;;;;;;;7.99;85.60;100042.25;5039516;28;20059;-62
2021/11/08 10:46:34;;;;;;;34.65;6.97;;;;;;;8.34;84.05;100038.53;5040165;28;20120;-62
2021/11/08 10:49:18;;;;;;;25.95;6.88;;;;;;;8.04;84.09;100040.78;5041524;28;20334;-61
2021/11/08 10:51:46;;;;;;;22.20;7.00;;;;;;;8.29;84.39;100033.00;5042125;28;20049;-61
2021/11/08 10:54:26;;;;;;;25.30;7.35;;;;;;;8.28;82.87;100040.16;5043610;28;20017;-61
2021/11/08 10:57:11;;;;;;;24.52;7.03;;;;;;;8.48;82.61;100042.84;5041491;28;20048;-61
2021/11/08 10:59:48;;;;;;;23.30;6.95;;;;;;;8.50;81.43;100039.97;5042249;28;20037;-61
2021/11/08 11:02:14;;;;;;;22.10;7.07;;;;;;;8.54;82.05;100041.19;5038758;28;20135;-61
2021/11/08 11:04:50;;;;;;;29.00;6.65;;;;;;;8.61;81.03;100036.63;5042936;28;20063;-61
2021/11/08 11:07:30;;;;;;;22.00;6.85;;;;;;;8.71;81.67;100042.38;5038615;28;20155;-61
2021/11/08 11:10:00;;;;;;;22.95;7.55;;;;;;;8.06;81.87;100044.09;5040662;28;20457;-61
2021/11/08 11:12:26;;;;;;;23.67;6.10;;;;;;;8.02;82.39;100034.88;5037133;28;20055;-61
2021/11/08 11:14:57;;;;;;;25.67;6.15;;;;;;;7.92;83.42;100038.75;5038694;28;20498;-62
2021/11/08 11:17:29;;;;;;;27.25;7.07;;;;;;;8.18;82.25;100042.44;5041233;28;20045;-61
2021/11/08 11:20:25;;;;;;;25.80;6.93;;;;;;;8.31;81.37;100042.44;5023301;28;20118;-61
2021/11/08 11:23:04;;;;;;;20.30;6.60;;;;;;;8.83;80.92;100043.34;5035855;28;20044;-62
2021/11/08 11:25:30;;;;;;;26.85;6.65;;;;;;;8.95;78.92;100032.00;5029439;28;20049;-62
2021/11/08 11:27:56;;;;;;;23.17;5.88;;;;;;;8.90;78.53;100019.28;5042563;28;20762;-63
2021/11/08 11:30:32;;;;;;;24.75;6.38;;;;;;;9.03;78.77;100023.75;5038537;28;20724;-61
2021/11/08 11:33:04;;;;;;;23.83;6.40;;;;;;;8.62;80.21;100028.41;5042272;28;20068;-61
2021/11/08 11:35:31;;;;;;;23.08;6.35;;;;;;;9.08;79.47;100021.25;5041318;28;20049;-61
2021/11/08 11:38:00;;;;;;;17.60;5.30;;;;;;;9.42;77.23;100029.94;5030806;28;20104;-62
2021/11/08 11:40:26;;;;;;;30.17;5.57;;;;;;;9.63;76.68;100032.25;5041971;28;20048;-62
2021/11/08 11:42:54;;;;;;;14.93;5.07;;;;;;;8.64;79.33;100031.72;5031899;28;20029;-63
2021/11/08 11:45:19;;;;;;;16.85;4.95;;;;;;;8.92;77.43;100032.44;5040868;28;20910;-62
2021/11/08 11:48:03;;;;;;;16.45;5.30;;;;;;;8.97;77.79;100029.94;5042839;28;20630;-63
2021/11/08 11:50:29;;;;;;;23.48;7.15;;;;;;;9.44;77.21;100025.19;5037771;28;20048;-63
2021/11/08 11:52:55;;;;;;;23.60;6.80;;;;;;;9.32;77.60;100035.75;5038841;28;20502;-63
2021/11/08 11:55:20;;;;;;;23.50;5.03;;;;;;;9.28;77.05;100035.38;5021323;28;20053;-62
2021/11/08 11:57:47;;;;;;;23.75;5.50;;;;;;;9.41;75.95;100028.28;5037256;28;20048;-60
2021/11/08 12:00:13;;;;;;;17.25;4.43;;;;;;;8.90;77.07;100026.47;5033777;28;20546;-60
2021/11/08 12:02:39;;;;;;;19.00;5.15;;;;;;;8.89;78.98;100020.31;5037011;28;20279;-61
2021/11/08 12:05:04;;;;;;;14.60;4.80;;;;;;;8.92;77.06;100017.22;5039902;28;20033;-60
2021/11/08 12:07:30;;;;;;;20.85;6.05;;;;;;;8.88;78.45;100015.19;5040572;28;20535;-60
2021/11/08 12:09:56;;;;;;;14.75;5.53;;;;;;;8.97;78.25;100030.78;5040370;28;20024;-61
2021/11/08 12:12:25;;;;;;;17.33;4.95;;;;;;;9.43;77.34;100018.19;5038589;28;20044;-61
2021/11/08 12:15:08;;;;;;;16.55;5.20;;;;;;;9.44;76.40;100007.28;5040734;28;20456;-61
2021/11/08 12:17:35;;;;;;;20.83;5.38;;;;;;;9.28;76.95;100015.78;5041147;28;20045;-61
2021/11/08 12:20:24;;;;;;;22.17;4.97;;;;;;;9.38;77.20;100000.09;5041204;28;20053;-61
2021/11/08 12:22:50;;;;;;;18.45;5.07;;;;;;;8.92;78.32;100000.38;5037350;28;20531;-63
2021/11/08 12:25:21;;;;;;;22.42;5.47;;;;;;;8.98;76.29;99999.50;5041563;28;20037;-60
2021/11/08 12:27:50;;;;;;;;;;;;;;;8.96;77.12;100006.91;5041263;28;20814;-59
2021/11/08 12:30:16;;;;;;;20.70;5.05;;;;;;;8.81;78.72;100000.00;5043873;28;20290;-61
2021/11/08 12:32:53;;;;;;;18.63;4.85;;;;;;;8.76;77.82;100007.84;5036549;28;20041;-62
2021/11/08 12:35:25;;;;;;;21.27;6.03;;;;;;;8.89;77.98;100006.16;5041399;28;20025;-61
2021/11/08 12:37:51;;;;;;;17.52;5.25;;;;;;;9.09;77.25;100006.88;5041693;28;20499;-62
2021/11/08 12:40:18;;;;;;;19.65;8.30;;;;;;;8.89;77.03;100014.16;5035315;28;20035;-62
2021/11/08 12:42:44;;;;;;;14.55;5.18;;;;;;;9.06;77.56;100018.81;5041150;28;20121;-62
2021/11/08 12:45:15;;;;;;;16.95;5.45;;;;;;;8.94;77.96;100009.81;5041909;28;20036;-62
2021/11/08 12:47:41;;;;;;;18.48;6.47;;;;;;;9.04;76.99;100012.03;5041796;28;20025;-62
2021/11/08 12:50:07;;;;;;;24.52;5.90;;;;;;;9.25;76.58;100010.88;5040577;28;20458;-60
2021/11/08 12:52:38;;;;;;;23.67;7.93;;;;;;;9.12;76.78;100008.28;5030403;28;20032;-61
2021/11/08 12:55:08;;;;;;;17.02;6.60;;;;;;;9.20;76.22;100003.50;5037930;28;20024;-61
2021/11/08 12:57:34;;;;;;;20.98;6.18;;;;;;;8.88;76.39;100009.81;5040963;28;20423;-61
2021/11/08 13:00:01;;;;;;;22.02;7.25;;;;;;;8.96;76.49;100017.59;5041268;28;20086;-61
2021/11/08 13:02:31;;;;;;;14.95;4.22;;;;;;;8.60;76.89;100021.66;5041417;28;20041;-61
2021/11/08 13:04:58;;;;;;;21.35;6.55;;;;;;;8.66;77.50;100012.78;5040516;28;20439;-61
2021/11/08 13:07:40;;;;;;;20.83;5.63;;;;;;;8.82;77.75;100015.00;5042015;28;20102;-61
2021/11/08 13:10:20;;;;;;;25.63;5.47;;;;;;;9.08;78.25;100010.56;5041059;28;20457;-61
2021/11/08 13:12:45;;;;;;;21.13;6.13;;;;;;;9.13;77.59;100008.06;5037075;28;20111;-61